createdAt,value
2022-11-02T00:05:03.371Z,6.40
2022-11-02T00:11:48.752Z,6.90
2022-11-02T00:18:38.279Z,6.45
2022-11-02T00:25:27.049Z,6.72
2022-11-02T00:32:12.557Z,6.00
2022-11-02T00:39:00.507Z,6.40
2022-11-02T00:45:46.815Z,7.10
2022-11-02T00:52:32.228Z,6.53
2022-11-02T00:59:20.399Z,6.70
2022-11-02T01:06:12.995Z,6.20
2022-11-02T01:12:58.417Z,6.60
2022-11-02T01:19:46.743Z,6.85
2022-11-02T01:26:32.376Z,6.65
2022-11-02T01:33:17.895Z,7.07
2022-11-02T01:40:06.061Z,6.38
2022-11-02T01:46:51.697Z,7.05
2022-11-02T01:53:42.806Z,6.53
2022-11-02T02:00:31.167Z,6.50
2022-11-02T02:07:18.484Z,6.80
2022-11-02T02:21:19.311Z,6.50
2022-11-02T02:28:24.068Z,6.10
2022-11-02T02:35:19.224Z,6.57
2022-11-02T02:42:15.807Z,6.17
2022-11-02T02:49:05.120Z,6.50
2022-11-02T02:55:53.203Z,6.13
2022-11-02T03:02:41.839Z,6.72
2022-11-02T03:09:36.734Z,6.45
2022-11-02T03:16:40.230Z,6.60
2022-11-02T03:23:33.962Z,5.93
2022-11-02T03:30:25.822Z,6.10
2022-11-02T03:37:19.580Z,5.90
2022-11-02T03:44:11.630Z,6.07
2022-11-02T04:04:55.854Z,6.32
2022-11-02T04:11:56.343Z,6.28
2022-11-02T04:18:54.391Z,5.80
2022-11-02T04:25:42.659Z,5.60
2022-11-02T04:32:52.140Z,5.68
2022-11-02T04:39:37.839Z,6.10
2022-11-02T04:46:28.527Z,5.90
2022-11-02T04:53:14.888Z,5.70
2022-11-02T05:00:02.562Z,7.30
2022-11-02T05:06:53.115Z,8.15
2022-11-02T05:13:41.389Z,8.73
2022-11-02T05:20:26.893Z,8.70
2022-11-02T05:27:15.785Z,7.50
2022-11-02T05:34:02.519Z,7.72
2022-11-02T05:40:47.971Z,8.20
2022-11-02T05:47:37.397Z,8.10
2022-11-02T05:54:22.903Z,8.00
2022-11-02T06:01:14.791Z,8.52
2022-11-02T06:08:06.244Z,8.07
2022-11-02T06:14:51.873Z,8.10
2022-11-02T06:21:37.238Z,8.55
2022-11-02T06:28:25.849Z,7.93
2022-11-02T06:35:13.253Z,7.85
2022-11-02T06:41:58.637Z,7.72
2022-11-02T06:48:49.031Z,7.72
2022-11-02T06:55:34.376Z,7.90
2022-11-02T07:02:22.191Z,7.53
2022-11-02T07:09:10.483Z,8.30
2022-11-02T07:15:57.083Z,7.55
2022-11-02T07:29:30.769Z,8.02
2022-11-02T07:36:16.310Z,8.00
2022-11-02T07:43:03.594Z,7.60
2022-11-02T07:49:59.717Z,8.30
2022-11-02T07:56:46.769Z,7.15
2022-11-02T08:03:33.177Z,7.95
2022-11-02T08:10:21.233Z,7.78
2022-11-02T08:17:06.630Z,7.53
2022-11-02T08:23:57.427Z,7.35
2022-11-02T08:30:46.754Z,7.93
2022-11-02T08:37:32.091Z,7.78
2022-11-02T08:44:17.504Z,7.38
2022-11-02T08:51:05.799Z,7.07
2022-11-02T08:57:52.899Z,9.13
2022-11-02T09:04:38.261Z,6.68
2022-11-02T09:11:26.346Z,7.40
2022-11-02T09:18:12.595Z,6.30
2022-11-02T09:24:57.959Z,6.32
2022-11-02T09:31:48.823Z,6.50
2022-11-02T09:38:34.444Z,6.35
2022-11-02T09:45:22.082Z,6.73
2022-11-02T09:52:19.099Z,6.10
2022-11-02T09:59:09.061Z,6.00
2022-11-02T10:06:05.255Z,6.05
2022-11-02T10:13:05.701Z,6.30
2022-11-02T10:19:58.541Z,6.15
2022-11-02T10:26:43.996Z,6.55
2022-11-02T10:33:33.900Z,5.57
2022-11-02T10:40:35.981Z,5.88
2022-11-02T10:47:24.163Z,6.55
2022-11-02T10:54:21.725Z,5.72
2022-11-02T11:01:14.469Z,6.90
2022-11-02T11:08:00.207Z,6.50
2022-11-02T11:22:01.037Z,7.00
2022-11-02T11:28:58.218Z,5.85
2022-11-02T11:35:52.793Z,5.80
2022-11-02T11:42:40.317Z,6.00
2022-11-02T11:56:37.911Z,5.78
2022-11-02T12:03:23.512Z,6.65
2022-11-02T12:10:19.552Z,6.03
2022-11-02T12:17:36.024Z,5.93
2022-11-02T12:24:53.350Z,5.50
2022-11-02T12:31:42.977Z,5.68
2022-11-02T12:38:56.155Z,5.60
2022-11-02T12:45:52.638Z,5.35
2022-11-02T12:59:37.268Z,5.70
2022-11-02T13:06:28.288Z,6.30
2022-11-02T13:13:19.644Z,5.00
2022-11-02T13:20:17.807Z,5.28
2022-11-02T13:27:21.795Z,5.38
2022-11-02T13:34:17.383Z,5.32
2022-11-02T13:41:27.053Z,5.32
2022-11-02T13:48:43.223Z,5.40
2022-11-02T13:55:44.527Z,6.00
2022-11-02T14:02:40.402Z,5.40
2022-11-02T14:09:36.324Z,5.68
2022-11-02T14:16:47.875Z,5.45
2022-11-02T14:23:46.124Z,5.30
2022-11-02T14:30:48.772Z,5.90
2022-11-02T14:38:03.450Z,5.13
2022-11-02T14:45:12.214Z,5.60
2022-11-02T14:52:08.290Z,5.10
2022-11-02T14:58:57.132Z,5.28
2022-11-02T15:05:46.526Z,5.32
2022-11-02T15:12:43.767Z,5.60
2022-11-02T15:19:46.377Z,5.10
2022-11-02T15:26:43.052Z,5.03
2022-11-02T15:33:45.123Z,4.90
2022-11-02T15:40:35.073Z,5.40
2022-11-02T15:47:38.448Z,5.38
2022-11-02T15:54:58.830Z,6.13
2022-11-02T16:01:44.371Z,5.22
2022-11-02T16:08:37.970Z,5.53
2022-11-02T16:15:23.311Z,5.88
2022-11-02T16:22:13.060Z,6.30
2022-11-02T16:29:03.388Z,7.90
2022-11-02T16:35:49.021Z,7.63
2022-11-02T16:42:34.624Z,7.43
2022-11-02T16:49:24.906Z,8.80
2022-11-02T16:56:28.224Z,9.43
2022-11-02T17:03:19.043Z,9.02
2022-11-02T17:10:09.891Z,7.80
2022-11-02T17:17:07.699Z,7.90
2022-11-02T17:23:55.588Z,8.43
2022-11-02T17:30:48.482Z,8.98
2022-11-02T17:37:35.685Z,11.40
2022-11-02T17:44:21.261Z,8.20
2022-11-02T17:51:15.263Z,8.13
2022-11-02T17:58:02.064Z,9.38
2022-11-02T18:11:35.734Z,12.35
2022-11-02T18:18:21.170Z,9.85
2022-11-02T18:25:07.293Z,8.57
2022-11-02T18:31:55.529Z,9.05
2022-11-02T18:38:42.337Z,19.77
2022-11-02T18:52:36.580Z,11.15
2022-11-02T18:59:21.987Z,10.18
2022-11-02T19:06:21.355Z,12.10
2022-11-02T19:13:09.349Z,8.40
2022-11-02T19:19:55.078Z,9.00
2022-11-02T19:26:41.774Z,10.37
2022-11-02T19:33:32.930Z,11.30
2022-11-02T19:40:18.535Z,14.18
2022-11-02T19:47:03.981Z,13.35
2022-11-02T19:53:55.703Z,13.45
2022-11-02T20:00:43.468Z,11.02
2022-11-02T20:07:28.990Z,10.77
2022-11-02T20:14:19.399Z,10.25
2022-11-02T20:21:09.485Z,9.18
2022-11-02T20:27:55.753Z,10.27
2022-11-02T20:34:43.735Z,9.93
2022-11-02T20:41:29.556Z,9.63
2022-11-02T20:48:15.443Z,9.53
2022-11-02T20:55:03.468Z,10.10
2022-11-02T21:01:48.906Z,9.52
2022-11-02T21:15:42.434Z,10.93
2022-11-02T21:22:27.820Z,10.85
2022-11-02T21:29:13.584Z,10.63
2022-11-02T21:36:02.248Z,12.05
2022-11-02T21:42:47.615Z,20.75
2022-11-02T21:49:33.227Z,31.92
2022-11-02T21:56:25.635Z,11.93
2022-11-02T22:03:11.152Z,11.15
2022-11-02T22:09:56.635Z,11.45
2022-11-02T22:16:46.379Z,11.30
2022-11-02T22:23:31.776Z,10.40
2022-11-02T22:30:18.068Z,13.95
2022-11-02T22:44:06.848Z,14.43
2022-11-02T22:50:52.265Z,13.55
2022-11-02T22:57:40.235Z,12.70
2022-11-02T23:04:25.567Z,10.60
2022-11-02T23:11:25.314Z,11.15
2022-11-02T23:18:13.454Z,10.57
2022-11-02T23:25:18.168Z,10.57
2022-11-02T23:32:16.049Z,10.10
2022-11-02T23:39:16.490Z,10.23
2022-11-02T23:46:01.861Z,10.25
2022-11-02T23:53:04.499Z,9.55
2022-11-02T23:59:53.322Z,9.43
